Погода Чижина 2 недели

Могилёвская область, Белоруссия

24 мая-06 июня
  • 24мая
    Сегодня
    +10°
    +22°
    Ясно и безоблачно
    ВремяПогодаТемператураВлажностьДавлениеВетер, м/сВероятность осадков
    00:00Ясно и безоблачно+15°C55 %756 мм4.7 м/с2 %
    03:00Ясно и безоблачно+12°C57 %756 мм4.7 м/с2 %
    06:00Ясно и безоблачно+11°C58 %757 мм4.7 м/с2 %
    09:00Ясно и безоблачно+16°C54 %758 мм5.2 м/с2 %
    12:00Ясно и безоблачно+20°C44 %758 мм5.3 м/с2 %
    15:00Ясно и безоблачно+22°C39 %758 мм5.0 м/с2 %
    18:00Ясно и безоблачно+22°C39 %757 мм4.8 м/с2 %
    21:00Ясно и безоблачно+17°C52 %758 мм3.6 м/с2 %
  • 25мая
    Суббота
    +11°
    +24°
    Ясно и безоблачно
    ВремяПогодаТемператураВлажностьДавлениеВетер, м/сВероятность осадков
    00:00Ясно и безоблачно+13°C57 %757 мм3.8 м/с2 %
    03:00Практически безоблачно+12°C61 %757 мм3.5 м/с2 %
    06:00Ясно и безоблачно+11°C66 %757 мм3.1 м/с2 %
    09:00Ясно и безоблачно+17°C56 %757 мм2.9 м/с2 %
    12:00Ясно и безоблачно+22°C45 %757 мм2.9 м/с2 %
    15:00Ясно и безоблачно+23°C39 %756 мм3.1 м/с2 %
    18:00Ясно и безоблачно+23°C38 %756 мм3.4 м/с2 %
    21:00Ясно и безоблачно+18°C58 %755 мм2.4 м/с2 %
  • 26мая
    Воскресенье
    +12°
    +24°
    Небольшая облачность
    ВремяПогодаТемператураВлажностьДавлениеВетер, м/сВероятность осадков
    00:00Ясно и безоблачно+14°C65 %755 мм2.5 м/с2 %
    03:00Ясно и безоблачно+12°C71 %755 мм2.7 м/с2 %
    06:00Облачно с прояснениями+12°C71 %755 мм0.9 м/с2 %
    09:00Облачно с прояснениями+18°C54 %756 мм0.4 м/с2 %
    12:00Облачно с прояснениями+23°C39 %756 мм1.5 м/с2 %
    15:00Небольшая облачность+24°C36 %755 мм1.8 м/с2 %
    18:00Ясно и безоблачно+24°C34 %754 мм1.9 м/с2 %
    21:00Ясно и безоблачно+19°C59 %754 мм1.9 м/с2 %
  • 27мая
    Понедельник
    +13°
    +25°
    Ясно и безоблачно
    ВремяПогодаТемператураВлажностьДавлениеВетер, м/сВероятность осадков
    00:00Ясно и безоблачно+14°C72 %754 мм2.3 м/с2 %
    03:00Ясно и безоблачно+14°C76 %754 мм0.6 м/с2 %
    06:00Ясно и безоблачно+13°C80 %755 мм1.0 м/с2 %
    09:00Ясно и безоблачно+20°C59 %755 мм1.2 м/с2 %
    12:00Ясно и безоблачно+24°C39 %755 мм1.8 м/с2 %
    15:00Ясно и безоблачно+25°C39 %755 мм2.2 м/с11 %
    18:00Ясно и безоблачно+24°C41 %754 мм2.1 м/с18 %
    21:00Ясно и безоблачно+20°C67 %754 мм2.2 м/с2 %
  • 28мая
    Вторник
    +14°
    +25°
    Практически безоблачно
    ВремяПогодаТемператураВлажностьДавлениеВетер, м/сВероятность осадков
    00:00Ясно и безоблачно+16°C78 %754 мм2.3 м/с2 %
    03:00Ясно и безоблачно+14°C87 %754 мм1.9 м/с2 %
    06:00Ясно и безоблачно+13°C83 %754 мм2.3 м/с2 %
    09:00Ясно и безоблачно+20°C65 %754 мм2.1 м/с2 %
    12:00Практически безоблачно+24°C48 %754 мм3.2 м/с2 %
    15:00Практически безоблачно+24°C49 %753 мм2.6 м/с5 %
    18:00Небольшая облачность+23°C49 %752 мм2.9 м/с6 %
    21:00Ясно и безоблачно+20°C74 %752 мм2.2 м/с4 %
Мы используем cookies
Соглашаюсь